sensor_id;sensor_type;location;lat;lon;timestamp;P1;durP1;ratioP1;P2;durP2;ratioP2
83728;SDS011;73707;56.480;-2.840;2024-01-11T00:01:49;3.63;;;0.57;;
83728;SDS011;73707;56.480;-2.840;2024-01-11T00:04:15;2.20;;;0.70;;
83728;SDS011;73707;56.480;-2.840;2024-01-11T00:06:44;3.70;;;0.77;;
83728;SDS011;73707;56.480;-2.840;2024-01-11T00:09:10;1.30;;;0.40;;
83728;SDS011;73707;56.480;-2.840;2024-01-11T00:11:35;1.08;;;0.47;;
83728;SDS011;73707;56.480;-2.840;2024-01-11T00:14:01;2.83;;;0.63;;
83728;SDS011;73707;56.480;-2.840;2024-01-11T00:16:27;3.40;;;0.77;;
83728;SDS011;73707;56.480;-2.840;2024-01-11T00:18:53;1.27;;;0.35;;
83728;SDS011;73707;56.480;-2.840;2024-01-11T00:21:18;1.43;;;0.40;;
83728;SDS011;73707;56.480;-2.840;2024-01-11T00:23:44;2.05;;;0.40;;
83728;SDS011;73707;56.480;-2.840;2024-01-11T00:26:13;0.50;;;0.30;;
83728;SDS011;73707;56.480;-2.840;2024-01-11T00:28:38;1.92;;;0.52;;
83728;SDS011;73707;56.480;-2.840;2024-01-11T00:31:04;1.35;;;0.52;;
83728;SDS011;73707;56.480;-2.840;2024-01-11T00:33:30;1.80;;;0.50;;
83728;SDS011;73707;56.480;-2.840;2024-01-11T00:35:56;1.40;;;0.50;;
83728;SDS011;73707;56.480;-2.840;2024-01-11T00:38:21;2.92;;;0.50;;
83728;SDS011;73707;56.480;-2.840;2024-01-11T00:40:47;1.30;;;0.47;;
83728;SDS011;73707;56.480;-2.840;2024-01-11T00:43:14;0.52;;;0.43;;
83728;SDS011;73707;56.480;-2.840;2024-01-11T00:45:39;1.13;;;0.30;;
83728;SDS011;73707;56.480;-2.840;2024-01-11T00:48:05;1.83;;;0.30;;
83728;SDS011;73707;56.480;-2.840;2024-01-11T00:50:31;0.93;;;0.25;;
83728;SDS011;73707;56.480;-2.840;2024-01-11T00:52:57;0.97;;;0.40;;
83728;SDS011;73707;56.480;-2.840;2024-01-11T00:55:22;0.70;;;0.20;;
83728;SDS011;73707;56.480;-2.840;2024-01-11T00:57:49;1.50;;;0.40;;
83728;SDS011;73707;56.480;-2.840;2024-01-11T01:00:15;0.40;;;0.20;;
83728;SDS011;73707;56.480;-2.840;2024-01-11T01:02:41;0.70;;;0.30;;
83728;SDS011;73707;56.480;-2.840;2024-01-11T01:05:07;0.30;;;0.10;;
83728;SDS011;73707;56.480;-2.840;2024-01-11T01:07:33;0.20;;;0.10;;
83728;SDS011;73707;56.480;-2.840;2024-01-11T01:09:59;1.10;;;0.40;;
83728;SDS011;73707;56.480;-2.840;2024-01-11T01:12:24;2.20;;;0.20;;
83728;SDS011;73707;56.480;-2.840;2024-01-11T01:14:50;1.00;;;0.38;;
83728;SDS011;73707;56.480;-2.840;2024-01-11T01:17:16;1.20;;;0.30;;
83728;SDS011;73707;56.480;-2.840;2024-01-11T01:19:43;0.60;;;0.10;;
83728;SDS011;73707;56.480;-2.840;2024-01-11T01:22:09;0.25;;;0.15;;
83728;SDS011;73707;56.480;-2.840;2024-01-11T01:24:35;2.47;;;0.20;;
83728;SDS011;73707;56.480;-2.840;2024-01-11T01:27:00;0.20;;;0.10;;
83728;SDS011;73707;56.480;-2.840;2024-01-11T01:29:26;0.20;;;0.10;;
83728;SDS011;73707;56.480;-2.840;2024-01-11T01:31:52;0.40;;;0.27;;
83728;SDS011;73707;56.480;-2.840;2024-01-11T01:34:18;1.25;;;0.30;;
83728;SDS011;73707;56.480;-2.840;2024-01-11T01:36:44;0.75;;;0.20;;
83728;SDS011;73707;56.480;-2.840;2024-01-11T01:39:10;0.70;;;0.10;;
83728;SDS011;73707;56.480;-2.840;2024-01-11T01:41:36;1.60;;;0.28;;
83728;SDS011;73707;56.480;-2.840;2024-01-11T01:44:01;0.30;;;0.20;;
83728;SDS011;73707;56.480;-2.840;2024-01-11T01:46:27;0.10;;;0.10;;
83728;SDS011;73707;56.480;-2.840;2024-01-11T01:48:54;0.70;;;0.20;;
83728;SDS011;73707;56.480;-2.840;2024-01-11T01:51:22;0.90;;;0.30;;
83728;SDS011;73707;56.480;-2.840;2024-01-11T01:53:51;0.57;;;0.20;;
83728;SDS011;73707;56.480;-2.840;2024-01-11T01:56:19;0.80;;;0.30;;
83728;SDS011;73707;56.480;-2.840;2024-01-11T01:58:48;0.32;;;0.25;;
83728;SDS011;73707;56.480;-2.840;2024-01-11T02:01:16;0.80;;;0.25;;
83728;SDS011;73707;56.480;-2.840;2024-01-11T02:03:44;0.40;;;0.25;;
83728;SDS011;73707;56.480;-2.840;2024-01-11T02:06:11;2.15;;;0.32;;
83728;SDS011;73707;56.480;-2.840;2024-01-11T02:08:40;0.30;;;0.10;;
83728;SDS011;73707;56.480;-2.840;2024-01-11T02:11:08;0.13;;;0.10;;
83728;SDS011;73707;56.480;-2.840;2024-01-11T02:13:36;0.50;;;0.10;;
83728;SDS011;73707;56.480;-2.840;2024-01-11T02:16:02;2.20;;;0.25;;
83728;SDS011;73707;56.480;-2.840;2024-01-11T02:18:28;0.30;;;0.15;;
83728;SDS011;73707;56.480;-2.840;2024-01-11T02:20:53;0.97;;;0.20;;
83728;SDS011;73707;56.480;-2.840;2024-01-11T02:23:21;0.28;;;0.17;;
83728;SDS011;73707;56.480;-2.840;2024-01-11T02:25:49;0.90;;;0.30;;
83728;SDS011;73707;56.480;-2.840;2024-01-11T02:28:15;0.60;;;0.40;;
83728;SDS011;73707;56.480;-2.840;2024-01-11T02:30:40;1.20;;;0.30;;
83728;SDS011;73707;56.480;-2.840;2024-01-11T02:33:06;0.50;;;0.20;;
83728;SDS011;73707;56.480;-2.840;2024-01-11T02:35:32;0.20;;;0.10;;
83728;SDS011;73707;56.480;-2.840;2024-01-11T02:38:00;0.60;;;0.10;;
83728;SDS011;73707;56.480;-2.840;2024-01-11T02:40:26;0.10;;;0.10;;
83728;SDS011;73707;56.480;-2.840;2024-01-11T02:42:52;0.40;;;0.03;;
83728;SDS011;73707;56.480;-2.840;2024-01-11T02:45:18;0.73;;;0.13;;
83728;SDS011;73707;56.480;-2.840;2024-01-11T02:47:44;0.55;;;0.25;;
83728;SDS011;73707;56.480;-2.840;2024-01-11T02:50:09;0.20;;;0.10;;
83728;SDS011;73707;56.480;-2.840;2024-01-11T02:52:38;0.10;;;0.00;;
83728;SDS011;73707;56.480;-2.840;2024-01-11T02:55:04;0.70;;;0.17;;
83728;SDS011;73707;56.480;-2.840;2024-01-11T02:57:30;0.65;;;0.20;;
83728;SDS011;73707;56.480;-2.840;2024-01-11T02:59:55;0.20;;;0.10;;
83728;SDS011;73707;56.480;-2.840;2024-01-11T03:02:21;0.20;;;0.10;;
83728;SDS011;73707;56.480;-2.840;2024-01-11T03:04:47;0.20;;;0.10;;
83728;SDS011;73707;56.480;-2.840;2024-01-11T03:07:12;0.60;;;0.30;;
83728;SDS011;73707;56.480;-2.840;2024-01-11T03:09:38;0.80;;;0.00;;
83728;SDS011;73707;56.480;-2.840;2024-01-11T03:12:04;0.50;;;0.10;;
83728;SDS011;73707;56.480;-2.840;2024-01-11T03:14:31;0.70;;;0.10;;
83728;SDS011;73707;56.480;-2.840;2024-01-11T03:16:57;0.70;;;0.10;;
83728;SDS011;73707;56.480;-2.840;2024-01-11T03:19:22;0.20;;;0.10;;
83728;SDS011;73707;56.480;-2.840;2024-01-11T03:21:48;0.40;;;0.20;;
83728;SDS011;73707;56.480;-2.840;2024-01-11T03:24:14;0.25;;;0.10;;
83728;SDS011;73707;56.480;-2.840;2024-01-11T03:26:40;1.73;;;0.20;;
83728;SDS011;73707;56.480;-2.840;2024-01-11T03:29:06;0.60;;;0.22;;
83728;SDS011;73707;56.480;-2.840;2024-01-11T03:31:32;0.85;;;0.25;;
83728;SDS011;73707;56.480;-2.840;2024-01-11T03:33:57;0.20;;;0.10;;
83728;SDS011;73707;56.480;-2.840;2024-01-11T03:36:23;0.00;;;0.00;;
83728;SDS011;73707;56.480;-2.840;2024-01-11T03:38:52;0.10;;;0.10;;
83728;SDS011;73707;56.480;-2.840;2024-01-11T03:41:18;0.20;;;0.10;;
83728;SDS011;73707;56.480;-2.840;2024-01-11T03:43:44;0.00;;;0.00;;
83728;SDS011;73707;56.480;-2.840;2024-01-11T03:46:10;0.32;;;0.10;;
83728;SDS011;73707;56.480;-2.840;2024-01-11T03:48:35;0.60;;;0.10;;
83728;SDS011;73707;56.480;-2.840;2024-01-11T03:51:01;0.35;;;0.17;;
83728;SDS011;73707;56.480;-2.840;2024-01-11T03:53:27;0.20;;;0.20;;
83728;SDS011;73707;56.480;-2.840;2024-01-11T03:55:53;0.03;;;0.03;;
83728;SDS011;73707;56.480;-2.840;2024-01-11T03:58:19;1.00;;;0.10;;
83728;SDS011;73707;56.480;-2.840;2024-01-11T04:00:45;2.10;;;0.10;;
83728;SDS011;73707;56.480;-2.840;2024-01-11T04:03:10;1.00;;;0.10;;
83728;SDS011;73707;56.480;-2.840;2024-01-11T04:05:36;0.00;;;0.00;;
83728;SDS011;73707;56.480;-2.840;2024-01-11T04:08:05;0.00;;;0.00;;
83728;SDS011;73707;56.480;-2.840;2024-01-11T04:10:34;0.10;;;0.00;;
83728;SDS011;73707;56.480;-2.840;2024-01-11T04:13:00;0.55;;;0.20;;
83728;SDS011;73707;56.480;-2.840;2024-01-11T04:15:26;1.10;;;0.20;;
83728;SDS011;73707;56.480;-2.840;2024-01-11T04:17:51;0.00;;;0.00;;
83728;SDS011;73707;56.480;-2.840;2024-01-11T04:20:17;1.20;;;0.10;;
83728;SDS011;73707;56.480;-2.840;2024-01-11T04:22:43;0.10;;;0.10;;
83728;SDS011;73707;56.480;-2.840;2024-01-11T04:25:08;0.20;;;0.00;;
83728;SDS011;73707;56.480;-2.840;2024-01-11T04:27:34;0.20;;;0.08;;
83728;SDS011;73707;56.480;-2.840;2024-01-11T04:30:00;0.00;;;0.00;;
83728;SDS011;73707;56.480;-2.840;2024-01-11T04:32:25;0.10;;;0.08;;
83728;SDS011;73707;56.480;-2.840;2024-01-11T04:34:51;0.10;;;0.10;;
83728;SDS011;73707;56.480;-2.840;2024-01-11T04:37:17;0.20;;;0.10;;
83728;SDS011;73707;56.480;-2.840;2024-01-11T04:39:43;0.10;;;0.00;;
83728;SDS011;73707;56.480;-2.840;2024-01-11T04:42:09;0.00;;;0.00;;
83728;SDS011;73707;56.480;-2.840;2024-01-11T04:44:35;0.20;;;0.00;;
83728;SDS011;73707;56.480;-2.840;2024-01-11T04:47:00;0.10;;;0.10;;
83728;SDS011;73707;56.480;-2.840;2024-01-11T04:49:26;0.30;;;0.08;;
83728;SDS011;73707;56.480;-2.840;2024-01-11T04:51:51;0.40;;;0.00;;
83728;SDS011;73707;56.480;-2.840;2024-01-11T04:54:17;0.80;;;0.03;;
83728;SDS011;73707;56.480;-2.840;2024-01-11T04:56:43;0.17;;;0.07;;
83728;SDS011;73707;56.480;-2.840;2024-01-11T04:59:09;1.00;;;0.07;;
83728;SDS011;73707;56.480;-2.840;2024-01-11T05:01:35;0.50;;;0.00;;
83728;SDS011;73707;56.480;-2.840;2024-01-11T05:04:01;0.60;;;0.10;;
83728;SDS011;73707;56.480;-2.840;2024-01-11T05:06:26;0.20;;;0.00;;
83728;SDS011;73707;56.480;-2.840;2024-01-11T05:08:52;0.10;;;0.10;;
83728;SDS011;73707;56.480;-2.840;2024-01-11T05:11:18;0.40;;;0.10;;
83728;SDS011;73707;56.480;-2.840;2024-01-11T05:13:45;0.20;;;0.10;;
83728;SDS011;73707;56.480;-2.840;2024-01-11T05:16:22;0.40;;;0.00;;
83728;SDS011;73707;56.480;-2.840;2024-01-11T05:18:52;1.38;;;0.20;;
83728;SDS011;73707;56.480;-2.840;2024-01-11T05:21:19;0.20;;;0.00;;
83728;SDS011;73707;56.480;-2.840;2024-01-11T05:23:46;1.20;;;0.10;;
83728;SDS011;73707;56.480;-2.840;2024-01-11T05:26:12;0.20;;;0.10;;
83728;SDS011;73707;56.480;-2.840;2024-01-11T05:28:39;0.00;;;0.00;;
83728;SDS011;73707;56.480;-2.840;2024-01-11T05:31:06;0.10;;;0.10;;
83728;SDS011;73707;56.480;-2.840;2024-01-11T05:33:33;0.10;;;0.00;;
83728;SDS011;73707;56.480;-2.840;2024-01-11T05:35:59;0.70;;;0.00;;
83728;SDS011;73707;56.480;-2.840;2024-01-11T05:38:24;0.60;;;0.10;;
83728;SDS011;73707;56.480;-2.840;2024-01-11T05:40:50;1.70;;;0.30;;
83728;SDS011;73707;56.480;-2.840;2024-01-11T05:43:16;1.40;;;0.33;;
83728;SDS011;73707;56.480;-2.840;2024-01-11T05:45:41;0.47;;;0.20;;
83728;SDS011;73707;56.480;-2.840;2024-01-11T05:48:07;2.40;;;0.20;;
83728;SDS011;73707;56.480;-2.840;2024-01-11T05:50:32;0.88;;;0.10;;
83728;SDS011;73707;56.480;-2.840;2024-01-11T05:52:58;0.90;;;0.10;;
83728;SDS011;73707;56.480;-2.840;2024-01-11T05:55:24;0.10;;;0.10;;
83728;SDS011;73707;56.480;-2.840;2024-01-11T05:57:49;0.40;;;0.08;;
83728;SDS011;73707;56.480;-2.840;2024-01-11T06:00:15;0.90;;;0.20;;
83728;SDS011;73707;56.480;-2.840;2024-01-11T06:02:41;0.68;;;0.10;;
83728;SDS011;73707;56.480;-2.840;2024-01-11T06:05:10;0.10;;;0.10;;
83728;SDS011;73707;56.480;-2.840;2024-01-11T06:07:37;0.30;;;0.10;;
83728;SDS011;73707;56.480;-2.840;2024-01-11T06:10:03;0.87;;;0.20;;
83728;SDS011;73707;56.480;-2.840;2024-01-11T06:12:30;0.10;;;0.00;;
83728;SDS011;73707;56.480;-2.840;2024-01-11T06:14:57;0.20;;;0.10;;
83728;SDS011;73707;56.480;-2.840;2024-01-11T06:17:22;2.30;;;0.00;;
83728;SDS011;73707;56.480;-2.840;2024-01-11T06:19:48;0.30;;;0.10;;
83728;SDS011;73707;56.480;-2.840;2024-01-11T06:22:14;0.00;;;0.00;;
83728;SDS011;73707;56.480;-2.840;2024-01-11T06:24:40;0.00;;;0.00;;
83728;SDS011;73707;56.480;-2.840;2024-01-11T06:27:06;0.00;;;0.00;;
83728;SDS011;73707;56.480;-2.840;2024-01-11T06:29:32;0.30;;;0.20;;
83728;SDS011;73707;56.480;-2.840;2024-01-11T06:31:57;0.40;;;0.00;;
83728;SDS011;73707;56.480;-2.840;2024-01-11T06:34:23;0.13;;;0.10;;
83728;SDS011;73707;56.480;-2.840;2024-01-11T06:36:49;0.30;;;0.00;;
83728;SDS011;73707;56.480;-2.840;2024-01-11T06:39:14;0.30;;;0.20;;
83728;SDS011;73707;56.480;-2.840;2024-01-11T06:41:40;0.00;;;0.00;;
83728;SDS011;73707;56.480;-2.840;2024-01-11T06:44:06;0.00;;;0.00;;
83728;SDS011;73707;56.480;-2.840;2024-01-11T06:46:31;2.13;;;0.50;;
83728;SDS011;73707;56.480;-2.840;2024-01-11T06:48:57;0.70;;;0.20;;
83728;SDS011;73707;56.480;-2.840;2024-01-11T06:51:23;2.05;;;0.10;;
83728;SDS011;73707;56.480;-2.840;2024-01-11T06:53:49;1.70;;;0.25;;
83728;SDS011;73707;56.480;-2.840;2024-01-11T06:56:15;1.80;;;0.10;;
83728;SDS011;73707;56.480;-2.840;2024-01-11T06:58:42;0.38;;;0.10;;
83728;SDS011;73707;56.480;-2.840;2024-01-11T07:01:08;0.55;;;0.15;;
83728;SDS011;73707;56.480;-2.840;2024-01-11T07:03:34;0.50;;;0.00;;
83728;SDS011;73707;56.480;-2.840;2024-01-11T07:06:00;0.10;;;0.10;;
83728;SDS011;73707;56.480;-2.840;2024-01-11T07:08:25;0.17;;;0.10;;
83728;SDS011;73707;56.480;-2.840;2024-01-11T07:10:51;0.40;;;0.10;;
83728;SDS011;73707;56.480;-2.840;2024-01-11T07:13:17;1.23;;;0.20;;
83728;SDS011;73707;56.480;-2.840;2024-01-11T07:15:43;0.13;;;0.00;;
83728;SDS011;73707;56.480;-2.840;2024-01-11T07:18:09;1.00;;;0.30;;
83728;SDS011;73707;56.480;-2.840;2024-01-11T07:20:34;0.10;;;0.00;;
83728;SDS011;73707;56.480;-2.840;2024-01-11T07:23:00;0.73;;;0.10;;
83728;SDS011;73707;56.480;-2.840;2024-01-11T07:25:26;0.80;;;0.50;;
83728;SDS011;73707;56.480;-2.840;2024-01-11T07:27:51;0.23;;;0.03;;
83728;SDS011;73707;56.480;-2.840;2024-01-11T07:30:17;2.00;;;0.20;;
83728;SDS011;73707;56.480;-2.840;2024-01-11T07:32:43;1.05;;;0.10;;
83728;SDS011;73707;56.480;-2.840;2024-01-11T07:35:09;0.10;;;0.10;;
83728;SDS011;73707;56.480;-2.840;2024-01-11T07:37:39;0.43;;;0.10;;
83728;SDS011;73707;56.480;-2.840;2024-01-11T07:40:05;0.10;;;0.10;;
83728;SDS011;73707;56.480;-2.840;2024-01-11T07:42:39;1.38;;;0.35;;
83728;SDS011;73707;56.480;-2.840;2024-01-11T07:45:06;0.30;;;0.10;;
83728;SDS011;73707;56.480;-2.840;2024-01-11T07:47:32;0.10;;;0.00;;
83728;SDS011;73707;56.480;-2.840;2024-01-11T07:49:58;0.25;;;0.25;;
83728;SDS011;73707;56.480;-2.840;2024-01-11T07:52:24;0.30;;;0.10;;
83728;SDS011;73707;56.480;-2.840;2024-01-11T07:54:50;1.50;;;0.40;;
83728;SDS011;73707;56.480;-2.840;2024-01-11T07:57:16;2.22;;;0.17;;
83728;SDS011;73707;56.480;-2.840;2024-01-11T07:59:41;0.47;;;0.17;;
83728;SDS011;73707;56.480;-2.840;2024-01-11T08:02:07;2.28;;;0.28;;
83728;SDS011;73707;56.480;-2.840;2024-01-11T08:04:33;1.75;;;0.57;;
83728;SDS011;73707;56.480;-2.840;2024-01-11T08:06:59;1.17;;;0.20;;
83728;SDS011;73707;56.480;-2.840;2024-01-11T08:09:27;1.20;;;0.20;;
83728;SDS011;73707;56.480;-2.840;2024-01-11T08:11:54;0.08;;;0.03;;
83728;SDS011;73707;56.480;-2.840;2024-01-11T08:14:22;4.20;;;0.30;;
83728;SDS011;73707;56.480;-2.840;2024-01-11T08:16:49;0.70;;;0.10;;
83728;SDS011;73707;56.480;-2.840;2024-01-11T08:19:15;0.28;;;0.00;;
83728;SDS011;73707;56.480;-2.840;2024-01-11T08:21:41;1.05;;;0.22;;
83728;SDS011;73707;56.480;-2.840;2024-01-11T08:24:07;0.32;;;0.30;;
83728;SDS011;73707;56.480;-2.840;2024-01-11T08:26:33;0.20;;;0.10;;
83728;SDS011;73707;56.480;-2.840;2024-01-11T08:29:01;1.33;;;0.20;;
83728;SDS011;73707;56.480;-2.840;2024-01-11T08:31:27;1.35;;;0.10;;
83728;SDS011;73707;56.480;-2.840;2024-01-11T08:33:53;0.50;;;0.20;;
83728;SDS011;73707;56.480;-2.840;2024-01-11T08:36:18;1.63;;;0.25;;
83728;SDS011;73707;56.480;-2.840;2024-01-11T08:38:45;0.20;;;0.17;;
83728;SDS011;73707;56.480;-2.840;2024-01-11T08:41:10;0.55;;;0.10;;
83728;SDS011;73707;56.480;-2.840;2024-01-11T08:43:36;0.70;;;0.20;;
83728;SDS011;73707;56.480;-2.840;2024-01-11T08:46:02;3.10;;;0.30;;
83728;SDS011;73707;56.480;-2.840;2024-01-11T08:48:28;3.57;;;0.30;;
83728;SDS011;73707;56.480;-2.840;2024-01-11T08:50:54;2.65;;;0.40;;
83728;SDS011;73707;56.480;-2.840;2024-01-11T08:53:19;0.60;;;0.20;;
83728;SDS011;73707;56.480;-2.840;2024-01-11T08:55:45;0.40;;;0.10;;
83728;SDS011;73707;56.480;-2.840;2024-01-11T08:58:11;0.40;;;0.20;;
83728;SDS011;73707;56.480;-2.840;2024-01-11T09:00:37;2.70;;;0.50;;
83728;SDS011;73707;56.480;-2.840;2024-01-11T09:03:03;1.40;;;0.65;;
83728;SDS011;73707;56.480;-2.840;2024-01-11T09:05:29;3.85;;;0.63;;
83728;SDS011;73707;56.480;-2.840;2024-01-11T09:07:54;1.73;;;0.23;;
83728;SDS011;73707;56.480;-2.840;2024-01-11T09:10:20;0.80;;;0.30;;
83728;SDS011;73707;56.480;-2.840;2024-01-11T09:12:46;0.90;;;0.52;;
83728;SDS011;73707;56.480;-2.840;2024-01-11T09:15:12;2.40;;;0.40;;
83728;SDS011;73707;56.480;-2.840;2024-01-11T09:17:37;1.52;;;0.40;;
83728;SDS011;73707;56.480;-2.840;2024-01-11T09:20:04;2.20;;;0.50;;
83728;SDS011;73707;56.480;-2.840;2024-01-11T09:22:30;0.83;;;0.20;;
83728;SDS011;73707;56.480;-2.840;2024-01-11T09:24:55;1.10;;;0.40;;
83728;SDS011;73707;56.480;-2.840;2024-01-11T09:27:21;0.47;;;0.20;;
83728;SDS011;73707;56.480;-2.840;2024-01-11T09:29:47;1.73;;;0.40;;
83728;SDS011;73707;56.480;-2.840;2024-01-11T09:32:13;1.30;;;0.40;;
83728;SDS011;73707;56.480;-2.840;2024-01-11T09:34:39;0.60;;;0.20;;
83728;SDS011;73707;56.480;-2.840;2024-01-11T09:37:05;0.80;;;0.20;;
83728;SDS011;73707;56.480;-2.840;2024-01-11T09:39:30;1.25;;;0.20;;
83728;SDS011;73707;56.480;-2.840;2024-01-11T09:42:04;1.43;;;0.13;;
83728;SDS011;73707;56.480;-2.840;2024-01-11T09:44:35;1.88;;;0.40;;
83728;SDS011;73707;56.480;-2.840;2024-01-11T09:47:05;0.28;;;0.25;;
83728;SDS011;73707;56.480;-2.840;2024-01-11T09:49:33;1.88;;;0.73;;
83728;SDS011;73707;56.480;-2.840;2024-01-11T09:52:00;1.90;;;0.68;;
83728;SDS011;73707;56.480;-2.840;2024-01-11T09:54:27;1.50;;;0.20;;
83728;SDS011;73707;56.480;-2.840;2024-01-11T09:56:54;1.10;;;0.30;;
83728;SDS011;73707;56.480;-2.840;2024-01-11T09:59:23;1.80;;;0.35;;
83728;SDS011;73707;56.480;-2.840;2024-01-11T10:01:50;2.60;;;0.52;;
83728;SDS011;73707;56.480;-2.840;2024-01-11T10:04:17;1.30;;;0.40;;
83728;SDS011;73707;56.480;-2.840;2024-01-11T10:06:43;0.20;;;0.10;;
83728;SDS011;73707;56.480;-2.840;2024-01-11T10:09:09;0.95;;;0.38;;
83728;SDS011;73707;56.480;-2.840;2024-01-11T10:11:35;1.80;;;0.25;;
83728;SDS011;73707;56.480;-2.840;2024-01-11T10:14:01;0.88;;;0.40;;
83728;SDS011;73707;56.480;-2.840;2024-01-11T10:16:28;1.52;;;0.38;;
83728;SDS011;73707;56.480;-2.840;2024-01-11T10:18:54;1.65;;;0.30;;
83728;SDS011;73707;56.480;-2.840;2024-01-11T10:21:20;2.00;;;0.30;;
83728;SDS011;73707;56.480;-2.840;2024-01-11T10:23:46;0.80;;;0.40;;
83728;SDS011;73707;56.480;-2.840;2024-01-11T10:26:16;0.52;;;0.25;;
83728;SDS011;73707;56.480;-2.840;2024-01-11T10:28:46;0.98;;;0.20;;
83728;SDS011;73707;56.480;-2.840;2024-01-11T10:31:12;1.23;;;0.30;;
83728;SDS011;73707;56.480;-2.840;2024-01-11T10:33:40;0.73;;;0.20;;
83728;SDS011;73707;56.480;-2.840;2024-01-11T10:36:06;0.50;;;0.17;;
83728;SDS011;73707;56.480;-2.840;2024-01-11T10:38:38;1.45;;;0.20;;
83728;SDS011;73707;56.480;-2.840;2024-01-11T10:41:05;0.27;;;0.10;;
83728;SDS011;73707;56.480;-2.840;2024-01-11T10:43:31;0.32;;;0.20;;
83728;SDS011;73707;56.480;-2.840;2024-01-11T10:46:00;0.90;;;0.20;;
83728;SDS011;73707;56.480;-2.840;2024-01-11T10:48:30;1.20;;;0.63;;
83728;SDS011;73707;56.480;-2.840;2024-01-11T10:51:02;2.00;;;0.83;;
83728;SDS011;73707;56.480;-2.840;2024-01-11T10:53:43;3.22;;;0.45;;
83728;SDS011;73707;56.480;-2.840;2024-01-11T10:56:14;2.60;;;0.50;;
83728;SDS011;73707;56.480;-2.840;2024-01-11T10:58:44;0.90;;;0.30;;
83728;SDS011;73707;56.480;-2.840;2024-01-11T11:01:11;0.88;;;0.40;;
83728;SDS011;73707;56.480;-2.840;2024-01-11T11:03:38;5.53;;;0.45;;
83728;SDS011;73707;56.480;-2.840;2024-01-11T11:06:07;3.00;;;0.82;;
83728;SDS011;73707;56.480;-2.840;2024-01-11T11:08:34;3.15;;;0.77;;
83728;SDS011;73707;56.480;-2.840;2024-01-11T11:11:03;6.32;;;1.05;;
83728;SDS011;73707;56.480;-2.840;2024-01-11T11:13:33;8.90;;;1.27;;
83728;SDS011;73707;56.480;-2.840;2024-01-11T11:16:00;6.80;;;0.95;;
83728;SDS011;73707;56.480;-2.840;2024-01-11T11:18:27;4.60;;;1.10;;
83728;SDS011;73707;56.480;-2.840;2024-01-11T11:20:53;5.07;;;0.88;;
83728;SDS011;73707;56.480;-2.840;2024-01-11T11:23:19;4.53;;;0.70;;
83728;SDS011;73707;56.480;-2.840;2024-01-11T11:25:45;7.57;;;1.30;;
83728;SDS011;73707;56.480;-2.840;2024-01-11T11:28:12;6.65;;;1.10;;
83728;SDS011;73707;56.480;-2.840;2024-01-11T11:30:42;8.20;;;1.25;;
83728;SDS011;73707;56.480;-2.840;2024-01-11T11:33:16;5.22;;;1.20;;
83728;SDS011;73707;56.480;-2.840;2024-01-11T11:35:46;3.75;;;1.13;;
83728;SDS011;73707;56.480;-2.840;2024-01-11T11:38:25;3.97;;;1.00;;
83728;SDS011;73707;56.480;-2.840;2024-01-11T11:40:54;2.83;;;0.90;;
83728;SDS011;73707;56.480;-2.840;2024-01-11T11:43:22;8.13;;;1.40;;
83728;SDS011;73707;56.480;-2.840;2024-01-11T11:45:48;6.38;;;0.80;;
83728;SDS011;73707;56.480;-2.840;2024-01-11T11:53:34;4.78;;;0.60;;
83728;SDS011;73707;56.480;-2.840;2024-01-11T11:56:00;2.45;;;0.60;;
83728;SDS011;73707;56.480;-2.840;2024-01-11T11:58:27;2.33;;;0.55;;
83728;SDS011;73707;56.480;-2.840;2024-01-11T12:00:54;1.52;;;0.32;;
83728;SDS011;73707;56.480;-2.840;2024-01-11T12:03:23;3.30;;;0.60;;
83728;SDS011;73707;56.480;-2.840;2024-01-11T12:05:54;1.45;;;0.40;;
83728;SDS011;73707;56.480;-2.840;2024-01-11T12:08:20;1.92;;;0.50;;
83728;SDS011;73707;56.480;-2.840;2024-01-11T12:10:47;1.35;;;0.47;;
83728;SDS011;73707;56.480;-2.840;2024-01-11T12:13:12;2.10;;;0.50;;
83728;SDS011;73707;56.480;-2.840;2024-01-11T12:15:38;2.58;;;0.70;;
83728;SDS011;73707;56.480;-2.840;2024-01-11T12:18:04;1.52;;;0.40;;
83728;SDS011;73707;56.480;-2.840;2024-01-11T12:20:32;1.60;;;0.70;;
83728;SDS011;73707;56.480;-2.840;2024-01-11T12:23:00;4.05;;;0.80;;
83728;SDS011;73707;56.480;-2.840;2024-01-11T12:25:27;4.90;;;1.30;;
83728;SDS011;73707;56.480;-2.840;2024-01-11T12:27:53;5.22;;;1.13;;
83728;SDS011;73707;56.480;-2.840;2024-01-11T12:30:22;3.25;;;1.10;;
83728;SDS011;73707;56.480;-2.840;2024-01-11T12:32:48;5.70;;;1.67;;
83728;SDS011;73707;56.480;-2.840;2024-01-11T12:35:15;4.60;;;1.10;;
83728;SDS011;73707;56.480;-2.840;2024-01-11T12:37:51;3.70;;;1.30;;
83728;SDS011;73707;56.480;-2.840;2024-01-11T12:40:18;8.55;;;2.17;;
83728;SDS011;73707;56.480;-2.840;2024-01-11T12:42:44;5.13;;;1.40;;
83728;SDS011;73707;56.480;-2.840;2024-01-11T12:45:10;6.97;;;1.73;;
83728;SDS011;73707;56.480;-2.840;2024-01-11T12:47:35;6.77;;;1.53;;
83728;SDS011;73707;56.480;-2.840;2024-01-11T12:50:03;6.63;;;1.50;;
83728;SDS011;73707;56.480;-2.840;2024-01-11T12:52:28;8.35;;;1.98;;
83728;SDS011;73707;56.480;-2.840;2024-01-11T12:54:55;7.25;;;1.90;;
83728;SDS011;73707;56.480;-2.840;2024-01-11T12:57:24;6.30;;;2.20;;
83728;SDS011;73707;56.480;-2.840;2024-01-11T12:59:51;7.53;;;1.88;;
83728;SDS011;73707;56.480;-2.840;2024-01-11T13:02:18;3.95;;;1.60;;
83728;SDS011;73707;56.480;-2.840;2024-01-11T13:04:44;4.97;;;1.85;;
83728;SDS011;73707;56.480;-2.840;2024-01-11T13:07:11;2.85;;;1.30;;
83728;SDS011;73707;56.480;-2.840;2024-01-11T13:09:37;4.05;;;1.45;;
83728;SDS011;73707;56.480;-2.840;2024-01-11T13:12:04;4.50;;;1.67;;
83728;SDS011;73707;56.480;-2.840;2024-01-11T13:14:30;4.17;;;1.20;;
83728;SDS011;73707;56.480;-2.840;2024-01-11T13:16:56;2.13;;;1.10;;
83728;SDS011;73707;56.480;-2.840;2024-01-11T13:19:22;4.83;;;1.27;;
83728;SDS011;73707;56.480;-2.840;2024-01-11T13:21:48;3.50;;;1.35;;
83728;SDS011;73707;56.480;-2.840;2024-01-11T13:24:16;2.35;;;0.90;;
83728;SDS011;73707;56.480;-2.840;2024-01-11T13:26:42;4.20;;;1.30;;
83728;SDS011;73707;56.480;-2.840;2024-01-11T13:29:08;3.25;;;1.05;;
83728;SDS011;73707;56.480;-2.840;2024-01-11T13:31:36;4.18;;;1.00;;
83728;SDS011;73707;56.480;-2.840;2024-01-11T13:34:01;2.63;;;0.80;;
83728;SDS011;73707;56.480;-2.840;2024-01-11T13:36:28;4.15;;;1.17;;
83728;SDS011;73707;56.480;-2.840;2024-01-11T13:38:54;5.40;;;1.00;;
83728;SDS011;73707;56.480;-2.840;2024-01-11T13:41:20;3.20;;;0.80;;
83728;SDS011;73707;56.480;-2.840;2024-01-11T13:43:45;6.97;;;1.20;;
83728;SDS011;73707;56.480;-2.840;2024-01-11T13:46:11;11.43;;;1.85;;
83728;SDS011;73707;56.480;-2.840;2024-01-11T13:48:41;15.00;;;2.83;;
83728;SDS011;73707;56.480;-2.840;2024-01-11T13:51:07;7.77;;;2.10;;
83728;SDS011;73707;56.480;-2.840;2024-01-11T13:53:35;18.75;;;3.60;;
83728;SDS011;73707;56.480;-2.840;2024-01-11T13:56:00;10.53;;;2.30;;
83728;SDS011;73707;56.480;-2.840;2024-01-11T13:58:26;23.73;;;3.22;;
83728;SDS011;73707;56.480;-2.840;2024-01-11T14:00:52;10.40;;;1.97;;
83728;SDS011;73707;56.480;-2.840;2024-01-11T14:03:18;14.48;;;2.60;;
83728;SDS011;73707;56.480;-2.840;2024-01-11T14:05:43;11.57;;;2.43;;
83728;SDS011;73707;56.480;-2.840;2024-01-11T14:08:09;7.50;;;2.22;;
83728;SDS011;73707;56.480;-2.840;2024-01-11T14:10:35;10.00;;;2.07;;
83728;SDS011;73707;56.480;-2.840;2024-01-11T14:13:00;14.07;;;2.33;;
83728;SDS011;73707;56.480;-2.840;2024-01-11T14:15:27;12.35;;;2.92;;
83728;SDS011;73707;56.480;-2.840;2024-01-11T14:17:53;7.07;;;2.40;;
83728;SDS011;73707;56.480;-2.840;2024-01-11T14:20:19;13.02;;;4.47;;
83728;SDS011;73707;56.480;-2.840;2024-01-11T14:22:46;8.38;;;3.50;;
83728;SDS011;73707;56.480;-2.840;2024-01-11T14:25:14;11.95;;;4.05;;
83728;SDS011;73707;56.480;-2.840;2024-01-11T14:27:40;8.13;;;3.60;;
83728;SDS011;73707;56.480;-2.840;2024-01-11T14:30:06;10.40;;;3.22;;
83728;SDS011;73707;56.480;-2.840;2024-01-11T14:32:33;9.13;;;2.97;;
83728;SDS011;73707;56.480;-2.840;2024-01-11T14:34:59;13.30;;;3.17;;